Time;durP1;ratioP1;P1;durP2;ratioP2;P2;SDS_P1;SDS_P2;PMS_P1;PMS_P2;Temp;Humidity;BMP_temperature;BMP_pressure;BME280_temperature;BME280_humidity;BME280_pressure;Samples;Min_cycle;Max_cycle;Signal;HPM_P1;HPM_P2
2021/11/03 00:02:05;;;;;;;25.40;14.63;;;;;;;8.60;100.00;99814.67;1781019;81;21078;-74
2021/11/03 00:04:33;;;;;;;22.03;13.40;;;;;;;8.60;100.00;99822.75;1777155;80;21042;-75
2021/11/03 00:07:00;;;;;;;21.00;12.77;;;;;;;8.58;100.00;99819.38;1775479;80;21484;-75
2021/11/03 00:09:27;;;;;;;24.73;14.07;;;;;;;8.53;100.00;99822.55;1716355;83;21077;-74
2021/11/03 00:11:53;;;;;;;22.17;13.27;;;;;;;8.52;100.00;99819.03;1746044;82;21492;-75
2021/11/03 00:14:20;;;;;;;22.73;13.33;;;;;;;8.53;100.00;99819.86;1741982;82;21004;-75
2021/11/03 00:16:47;;;;;;;22.03;13.73;;;;;;;8.51;100.00;99817.33;1740254;81;21039;-74
2021/11/03 00:19:14;;;;;;;25.77;15.40;;;;;;;8.52;100.00;99819.54;1752026;81;21032;-74
2021/11/03 00:21:41;;;;;;;22.27;14.17;;;;;;;8.52;100.00;99812.80;1718976;83;21080;-74
2021/11/03 00:24:08;;;;;;;25.83;14.43;;;;;;;8.50;100.00;99825.59;1756053;82;21007;-76
2021/11/03 00:26:35;;;;;;;25.83;15.40;;;;;;;8.49;100.00;99826.59;1715934;83;21051;-74
2021/11/03 00:29:02;;;;;;;26.17;14.80;;;;;;;8.47;100.00;99825.41;1750869;81;21023;-74
2021/11/03 00:31:29;;;;;;;24.33;13.90;;;;;;;8.46;100.00;99830.95;1721565;83;21481;-75
2021/11/03 00:33:56;;;;;;;25.90;14.10;;;;;;;8.48;100.00;99835.19;1752273;82;21043;-75
2021/11/03 00:36:23;;;;;;;23.57;14.10;;;;;;;8.49;100.00;99831.98;1755271;81;21512;-74
2021/11/03 00:38:50;;;;;;;24.90;14.17;;;;;;;8.51;100.00;99833.49;1719773;83;21040;-75
2021/11/03 00:41:16;;;;;;;26.90;15.60;;;;;;;8.53;100.00;99838.25;1746009;81;21049;-75
2021/11/03 00:43:43;;;;;;;27.47;15.57;;;;;;;8.56;100.00;99843.80;1744628;82;21083;-74
2021/11/03 00:46:10;;;;;;;25.97;14.13;;;;;;;8.57;100.00;99840.59;1716598;83;20996;-75
2021/11/03 00:48:37;;;;;;;26.23;14.53;;;;;;;8.56;100.00;99846.49;1752594;81;21018;-75
2021/11/03 00:51:03;;;;;;;24.30;14.27;;;;;;;8.57;100.00;99846.84;1749949;82;20987;-75
2021/11/03 00:53:30;;;;;;;24.47;13.83;;;;;;;8.59;100.00;99848.87;1719767;83;21091;-74
2021/11/03 00:55:57;;;;;;;26.33;15.63;;;;;;;8.59;100.00;99850.70;1752060;81;21458;-75
2021/11/03 00:58:24;;;;;;;29.30;16.27;;;;;;;8.58;100.00;99850.38;1725988;82;21434;-74
2021/11/03 01:00:51;;;;;;;27.57;15.70;;;;;;;8.57;100.00;99861.67;1721260;83;21016;-75
2021/11/03 01:03:18;;;;;;;25.13;14.33;;;;;;;8.55;100.00;99862.31;1752937;81;21036;-75
2021/11/03 01:05:45;;;;;;;25.37;14.20;;;;;;;8.56;100.00;99870.75;1753823;82;21047;-74
2021/11/03 01:08:13;;;;;;;23.57;14.80;;;;;;;8.59;100.00;99878.52;1704327;83;21528;-74
2021/11/03 01:10:42;;;;;;;26.13;15.20;;;;;;;8.62;100.00;99882.73;1718821;83;21042;-75
2021/11/03 01:13:10;;;;;;;25.07;15.40;;;;;;;8.60;100.00;99879.35;1778341;79;21530;-75
2021/11/03 01:15:37;;;;;;;30.37;17.53;;;;;;;8.61;100.00;99886.45;1762517;81;21084;-74
2021/11/03 01:18:03;;;;;;;29.77;17.17;;;;;;;8.61;100.00;99886.45;1758864;80;21014;-74
2021/11/03 01:20:30;;;;;;;28.97;17.57;;;;;;;8.62;100.00;99891.64;1749839;82;21507;-74
2021/11/03 01:22:57;;;;;;;31.33;18.80;;;;;;;8.64;100.00;99888.80;1749115;82;21030;-75
2021/11/03 01:25:25;;;;;;;32.40;20.27;;;;;;;8.64;100.00;99873.48;1719856;83;21564;-75
2021/11/03 01:27:52;;;;;;;32.93;21.13;;;;;;;8.66;100.00;99880.06;1747682;82;21062;-74
2021/11/03 01:30:20;;;;;;;34.13;21.40;;;;;;;8.63;100.00;99881.22;1707339;83;21011;-74
2021/11/03 01:32:49;;;;;;;35.40;22.30;;;;;;;8.64;100.00;99882.05;1729212;82;21034;-74
2021/11/03 01:35:18;;;;;;;39.37;24.63;;;;;;;8.63;100.00;99878.52;1732749;81;21522;-75
2021/11/03 01:37:45;;;;;;;40.60;27.73;;;;;;;8.66;100.00;99882.77;1715283;83;21013;-74
2021/11/03 01:40:16;;;;;;;44.73;28.33;;;;;;;8.66;100.00;99883.59;1742708;82;21045;-74
2021/11/03 01:42:43;;;;;;;45.87;28.90;;;;;;;8.62;100.00;99863.34;1749597;81;21050;-74
2021/11/03 01:45:12;;;;;;;47.83;30.07;;;;;;;8.61;100.00;99864.37;1749410;81;21026;-74
2021/11/03 01:47:49;;;;;;;51.67;30.93;;;;;;;8.60;100.00;99864.02;1713171;83;21080;-75
2021/11/03 01:50:24;;;;;;;49.17;31.13;;;;;;;8.58;100.00;99863.85;1747125;81;21022;-75
2021/11/03 01:53:08;;;;;;;51.73;33.20;;;;;;;8.54;100.00;99866.86;1747978;82;21018;-75
2021/11/03 01:55:34;;;;;;;;;;;;;;;8.53;100.00;99871.06;1672828;84;21042;-75
2021/11/03 01:58:10;;;;;;;57.90;37.00;;;;;;;8.51;100.00;99874.43;1675619;84;20302;-75
2021/11/03 02:00:39;;;;;;;58.63;37.40;;;;;;;8.48;100.00;99880.13;1667173;86;21058;-76
2021/11/03 02:03:10;;;;;;;57.07;36.57;;;;;;;8.45;100.00;99889.40;1614902;86;21002;-75
2021/11/03 02:05:40;;;;;;;58.17;36.38;;;;;;;8.43;100.00;99882.47;1691480;84;21571;-75
2021/11/03 02:08:08;;;;;;;58.10;37.73;;;;;;;8.43;100.00;99883.81;1646410;86;21057;-75
2021/11/03 02:10:35;;;;;;;61.90;39.43;;;;;;;8.44;100.00;99888.20;1670198;85;21612;-75
2021/11/03 02:13:03;;;;;;;64.30;41.13;;;;;;;8.42;100.00;99890.19;1669320;85;21038;-75
2021/11/03 02:15:32;;;;;;;63.63;39.43;;;;;;;8.41;100.00;99889.84;1690907;84;21070;-75
2021/11/03 02:17:58;;;;;;;65.43;40.27;;;;;;;8.41;100.00;99886.66;1661699;85;21725;-76
2021/11/03 02:20:25;;;;;;;64.27;40.13;;;;;;;8.41;100.00;99889.36;1682580;85;21090;-74
2021/11/03 02:23:06;;;;;;;61.97;39.47;;;;;;;8.42;100.00;99884.32;1667715;85;21061;-75
2021/11/03 02:25:44;;;;;;;64.43;40.30;;;;;;;8.43;100.00;99878.42;1686791;85;21007;-75
2021/11/03 02:28:11;;;;;;;73.20;44.47;;;;;;;8.43;100.00;99888.72;1690526;85;21058;-74
2021/11/03 02:30:37;;;;;;;68.27;40.50;;;;;;;8.44;100.00;99889.05;1663167;85;21046;-74
2021/11/03 02:33:08;;;;;;;64.80;39.17;;;;;;;8.44;100.00;99895.78;1723223;82;21014;-74
2021/11/03 02:35:38;;;;;;;61.30;38.17;;;;;;;8.47;100.00;99898.67;1699490;83;21049;-74
2021/11/03 02:38:06;;;;;;;57.93;37.50;;;;;;;8.50;100.00;99901.89;1721016;82;21002;-75
2021/11/03 02:40:47;;;;;;;57.40;36.90;;;;;;;8.52;100.00;99900.38;1721763;82;21587;-74
2021/11/03 02:43:28;;;;;;;54.93;34.73;;;;;;;8.53;100.00;99901.58;1720902;83;21026;-73
2021/11/03 02:45:58;;;;;;;59.80;37.27;;;;;;;8.54;100.00;99900.55;1675680;84;21029;-74
2021/11/03 02:48:28;;;;;;;56.37;35.93;;;;;;;8.55;100.00;99903.60;1647941;84;21073;-75
2021/11/03 02:51:16;;;;;;;54.77;33.93;;;;;;;8.56;100.00;99905.78;1673039;84;21073;-76
2021/11/03 02:53:50;;;;;;;56.27;34.73;;;;;;;8.57;100.00;99912.88;1651398;85;21541;-75
2021/11/03 02:56:22;;;;;;;53.67;34.13;;;;;;;8.59;100.00;99908.16;1591721;90;21100;-76
2021/11/03 02:58:49;;;;;;;57.27;37.10;;;;;;;8.60;100.00;99899.05;1591422;90;21133;-75
2021/11/03 03:01:37;;;;;;;53.87;34.73;;;;;;;8.60;100.00;99899.05;1588611;90;21567;-75
2021/11/03 03:04:23;;;;;;;55.27;33.50;;;;;;;8.60;100.00;99900.40;1589100;90;21048;-74
2021/11/03 03:06:51;;;;;;;52.27;33.43;;;;;;;8.61;100.00;99906.66;1596364;88;21105;-74
2021/11/03 03:09:18;;;;;;;51.40;32.13;;;;;;;8.61;100.00;99907.50;1610495;89;21089;-75
2021/11/03 03:11:48;;;;;;;52.53;34.80;;;;;;;8.60;100.00;99902.27;1610898;88;21064;-74
2021/11/03 03:14:18;;;;;;;50.33;32.53;;;;;;;8.60;100.00;99911.18;1609614;88;21122;-73
2021/11/03 03:16:46;;;;;;;46.77;31.00;;;;;;;8.59;100.00;99906.81;1619662;87;21050;-76
2021/11/03 03:19:14;;;;;;;45.93;29.43;;;;;;;8.57;100.00;99900.75;1609270;87;21054;-75
2021/11/03 03:21:41;;;;;;;42.10;28.83;;;;;;;8.57;100.00;99899.40;1612340;88;21106;-74
2021/11/03 03:24:09;;;;;;;43.40;29.23;;;;;;;8.58;100.00;99899.72;1608763;87;21086;-74
2021/11/03 03:26:37;;;;;;;47.93;30.80;;;;;;;8.60;100.00;99899.05;1608761;87;21026;-75
2021/11/03 03:29:04;;;;;;;47.20;28.40;;;;;;;8.60;100.00;99899.05;1617504;88;21074;-75
2021/11/03 03:31:32;;;;;;;44.53;28.10;;;;;;;8.59;100.00;99893.34;1628550;86;21093;-74
2021/11/03 03:34:03;;;;;;;46.30;28.20;;;;;;;8.58;100.00;99892.98;1635301;86;21082;-75
2021/11/03 03:36:30;;;;;;;48.43;31.07;;;;;;;8.58;100.00;99901.07;1637915;86;21019;-74
2021/11/03 03:38:58;;;;;;;41.60;26.13;;;;;;;8.59;100.00;99899.21;1634414;86;21098;-74
2021/11/03 03:41:26;;;;;;;42.63;27.40;;;;;;;8.58;100.00;99891.64;1632167;86;21115;-75
2021/11/03 03:43:53;;;;;;;42.83;28.23;;;;;;;8.56;100.00;99889.61;1632172;86;21137;-75
2021/11/03 03:46:21;;;;;;;54.33;36.40;;;;;;;8.54;100.00;99895.16;1640407;87;21618;-75
2021/11/03 03:48:48;;;;;;;57.40;39.90;;;;;;;8.54;100.00;99890.28;1650491;85;21030;-75
2021/11/03 03:51:14;;;;;;;60.30;44.40;;;;;;;8.54;100.00;99885.73;1686674;84;21026;-74
2021/11/03 03:53:42;;;;;;;56.03;40.77;;;;;;;8.54;100.00;99888.42;1709199;83;21077;-74
2021/11/03 03:56:09;;;;;;;53.43;40.87;;;;;;;8.55;100.00;99880.69;1734934;82;21026;-76
2021/11/03 03:58:37;;;;;;;41.53;29.93;;;;;;;8.55;100.00;99886.08;1744707;82;21031;-72
2021/11/03 04:01:04;;;;;;;36.83;24.60;;;;;;;8.54;100.00;99885.73;1707871;83;21523;-73
2021/11/03 04:03:31;;;;;;;34.27;22.73;;;;;;;8.53;100.00;99881.36;1718487;83;21545;-75
2021/11/03 04:05:59;;;;;;;35.70;23.53;;;;;;;8.54;100.00;99881.69;1718113;83;21103;-75
2021/11/03 04:08:25;;;;;;;34.90;21.90;;;;;;;8.58;100.00;99880.02;1743205;82;21049;-75
2021/11/03 04:10:52;;;;;;;34.57;22.63;;;;;;;8.60;100.00;99876.66;1781228;80;21566;-75
2021/11/03 04:15:48;;;;;;;33.70;22.60;;;;;;;8.62;100.00;99872.78;1629736;87;21109;-75
2021/11/03 04:18:15;;;;;;;36.13;24.30;;;;;;;8.62;100.00;99876.82;1629640;85;21026;-76
2021/11/03 04:20:43;;;;;;;33.67;22.90;;;;;;;8.62;100.00;99890.30;1615075;88;21101;-76
2021/11/03 04:23:10;;;;;;;32.13;20.53;;;;;;;8.64;100.00;99891.48;1632366;87;21055;-76
2021/11/03 04:25:37;;;;;;;33.30;20.57;;;;;;;8.66;100.00;99893.03;1629189;87;21145;-77
2021/11/03 04:28:05;;;;;;;30.87;19.00;;;;;;;8.68;100.00;99890.17;1632530;87;21110;-77
2021/11/03 04:30:32;;;;;;;29.97;18.30;;;;;;;8.70;100.00;99889.51;1617914;87;21639;-77
2021/11/03 04:32:59;;;;;;;29.30;18.40;;;;;;;8.71;100.00;99898.78;1628357;87;21137;-76
2021/11/03 04:35:26;;;;;;;28.17;17.10;;;;;;;8.71;100.00;99893.39;1632311;87;21483;-76
2021/11/03 04:37:54;;;;;;;26.37;16.43;;;;;;;8.74;100.00;99902.48;1635951;87;21032;-76
2021/11/03 04:40:21;;;;;;;26.43;15.53;;;;;;;8.78;100.00;99906.20;1632656;87;21046;-77
2021/11/03 04:42:48;;;;;;;28.47;17.70;;;;;;;8.79;100.00;99897.95;1630004;87;21536;-77
2021/11/03 04:45:16;;;;;;;30.13;16.27;;;;;;;8.80;100.00;99898.80;1625777;87;21167;-77
2021/11/03 04:47:43;;;;;;;24.57;15.13;;;;;;;8.81;100.00;99895.94;1630993;86;21087;-77
2021/11/03 04:50:15;;;;;;;26.83;16.33;;;;;;;8.83;100.00;99891.73;1626039;87;21034;-76
2021/11/03 04:52:42;;;;;;;27.57;16.70;;;;;;;8.82;100.00;99890.03;1647763;87;21077;-77
2021/11/03 04:55:10;;;;;;;24.00;14.57;;;;;;;8.81;100.00;99891.06;1643083;86;21030;-76
2021/11/03 04:57:37;;;;;;;26.40;14.77;;;;;;;8.80;100.00;99897.45;1634912;87;21559;-77
2021/11/03 05:00:07;;;;;;;25.80;14.50;;;;;;;8.80;100.00;99898.80;1644793;86;21094;-76
2021/11/03 05:02:35;;;;;;;24.63;14.60;;;;;;;8.79;100.00;99903.35;1636562;86;21085;-77
2021/11/03 05:05:02;;;;;;;23.07;13.87;;;;;;;8.82;100.00;99900.82;1643388;87;21078;-78
2021/11/03 05:07:31;;;;;;;23.27;14.07;;;;;;;8.83;100.00;99907.91;1615396;87;21038;-78
2021/11/03 05:09:58;;;;;;;24.87;15.10;;;;;;;8.83;100.00;99920.88;1632700;87;21603;-77
2021/11/03 05:12:25;;;;;;;23.70;14.60;;;;;;;8.83;100.00;99916.84;1682110;82;21523;-78
2021/11/03 05:14:53;;;;;;;25.53;15.57;;;;;;;8.86;100.00;99924.61;1737795;79;21057;-78
2021/11/03 05:17:20;;;;;;;23.83;14.87;;;;;;;8.91;100.00;99929.52;1744001;82;21023;-79
2021/11/03 05:19:47;;;;;;;24.30;14.83;;;;;;;8.91;100.00;99934.41;1695730;83;21039;-77
2021/11/03 05:22:20;;;;;;;23.43;13.37;;;;;;;8.92;100.00;99925.80;1749745;80;21044;-78
2021/11/03 05:24:47;;;;;;;24.80;14.13;;;;;;;8.94;100.00;99925.13;1738879;82;20946;-78
2021/11/03 05:27:13;;;;;;;22.43;14.17;;;;;;;8.96;100.00;99930.36;1731267;80;20977;-77
2021/11/03 05:29:40;;;;;;;23.70;13.73;;;;;;;8.97;100.00;99931.55;1748519;81;21097;-76
2021/11/03 05:32:07;;;;;;;22.57;13.67;;;;;;;8.97;100.00;99938.30;1714990;81;20990;-78
2021/11/03 05:34:35;;;;;;;23.67;13.57;;;;;;;9.01;100.00;99942.38;1732563;81;21594;-77
2021/11/03 05:37:02;;;;;;;20.60;12.27;;;;;;;9.04;100.00;99946.08;1735480;82;21018;-76
2021/11/03 05:39:29;;;;;;;21.53;12.43;;;;;;;9.07;100.00;99950.31;1729870;82;21495;-77
2021/11/03 05:41:57;;;;;;;22.73;13.20;;;;;;;9.09;100.00;99945.59;1727010;81;22282;-76
2021/11/03 05:44:23;;;;;;;22.87;13.33;;;;;;;9.08;100.00;99940.71;1733146;82;21012;-76
2021/11/03 05:46:53;;;;;;;25.17;13.70;;;;;;;9.06;100.00;99948.61;1737636;81;21440;-77
2021/11/03 05:49:24;;;;;;;23.23;12.97;;;;;;;9.05;100.00;99950.47;1732756;81;21089;-76
2021/11/03 05:51:51;;;;;;;24.03;12.70;;;;;;;9.05;100.00;99953.68;1739249;81;21519;-76
2021/11/03 05:54:18;;;;;;;20.67;12.53;;;;;;;9.05;100.00;99950.47;1736612;81;21002;-77
2021/11/03 05:56:46;;;;;;;21.70;12.93;;;;;;;9.08;100.00;99948.80;1756430;81;21127;-78
2021/11/03 05:59:14;;;;;;;21.17;12.20;;;;;;;9.10;100.00;99950.83;1760961;80;21031;-76
2021/11/03 06:01:41;;;;;;;20.90;12.57;;;;;;;9.14;100.00;99954.05;1736600;82;21013;-76
2021/11/03 06:04:08;;;;;;;20.40;12.23;;;;;;;9.17;100.00;99955.55;1715269;82;21034;-77
2021/11/03 06:06:34;;;;;;;21.80;13.10;;;;;;;9.19;100.00;99957.58;1729548;81;20987;-72
2021/11/03 06:09:01;;;;;;;22.03;12.80;;;;;;;9.20;100.00;99958.77;1733466;81;21026;-72
2021/11/03 06:11:31;;;;;;;23.77;15.37;;;;;;;9.22;100.00;99957.26;1734132;81;21062;-72
2021/11/03 06:13:59;;;;;;;25.47;14.03;;;;;;;9.27;100.00;99961.15;1751725;78;21503;-71
2021/11/03 06:16:26;;;;;;;21.77;13.07;;;;;;;9.30;100.00;99963.52;1766300;80;21039;-71
2021/11/03 06:18:53;;;;;;;21.80;12.93;;;;;;;9.34;100.00;99961.85;1750961;81;20987;-71
2021/11/03 06:21:20;;;;;;;21.00;12.33;;;;;;;9.36;100.00;99962.02;1742129;82;21050;-71
2021/11/03 06:23:47;;;;;;;21.30;12.27;;;;;;;9.41;100.00;99963.72;1738072;82;21082;-71
2021/11/03 06:26:15;;;;;;;22.80;12.80;;;;;;;9.45;100.00;99965.58;1761696;80;21022;-72
2021/11/03 06:28:42;;;;;;;25.27;14.87;;;;;;;9.47;100.00;99958.16;1767845;80;21002;-72
2021/11/03 06:31:09;;;;;;;21.63;13.57;;;;;;;9.51;100.00;99959.53;1728432;82;21026;-73
2021/11/03 06:33:36;;;;;;;21.90;13.07;;;;;;;9.55;100.00;99960.88;1735389;81;21481;-74
2021/11/03 06:36:04;;;;;;;23.20;14.93;;;;;;;9.59;100.00;99959.52;1734744;82;21022;-73
2021/11/03 06:38:33;;;;;;;21.77;14.70;;;;;;;9.60;100.00;99966.62;1732773;82;21536;-73
2021/11/03 06:41:02;;;;;;;22.53;14.33;;;;;;;9.63;100.00;99960.91;1739780;82;21046;-71
2021/11/03 06:43:29;;;;;;;23.80;15.17;;;;;;;9.68;100.00;99963.95;1733070;81;21072;-70
2021/11/03 06:45:57;;;;;;;23.97;14.27;;;;;;;9.70;100.00;99958.35;1728857;81;21120;-71
2021/11/03 06:48:23;;;;;;;27.43;16.33;;;;;;;9.75;100.00;99960.05;1728177;82;21048;-72
2021/11/03 06:50:53;;;;;;;21.60;12.47;;;;;;;9.76;100.00;99961.75;1724889;81;21076;-74
2021/11/03 06:53:23;;;;;;;20.57;12.13;;;;;;;9.80;100.00;99963.61;1721937;82;21568;-73
2021/11/03 06:55:50;;;;;;;21.70;13.63;;;;;;;9.83;100.00;99961.41;1718778;82;21063;-74
2021/11/03 06:58:17;;;;;;;39.50;26.90;;;;;;;9.88;100.00;99968.51;1734341;81;21022;-73
2021/11/03 07:00:46;;;;;;;21.87;13.07;;;;;;;9.92;100.00;99964.96;1722063;82;21022;-73
2021/11/03 07:03:13;;;;;;;20.73;12.03;;;;;;;9.95;100.00;99975.44;1725888;82;21019;-73
2021/11/03 07:05:43;;;;;;;26.70;17.15;;;;;;;9.96;100.00;99971.70;1725075;81;21501;-74
2021/11/03 07:08:12;;;;;;;25.47;15.60;;;;;;;9.99;100.00;99970.02;1718118;82;21060;-74
2021/11/03 07:10:42;;;;;;;24.00;13.63;;;;;;;9.98;100.00;99972.38;1732230;81;20994;-72
2021/11/03 07:13:10;;;;;;;24.73;13.23;;;;;;;9.99;100.00;99974.08;1724127;81;21019;-73
2021/11/03 07:15:38;;;;;;;24.53;14.87;;;;;;;10.00;100.00;99982.50;1733990;82;21034;-72
2021/11/03 07:18:06;;;;;;;25.47;15.10;;;;;;;10.01;100.00;99981.50;1750806;80;21045;-71
2021/11/03 07:20:34;;;;;;;26.37;13.73;;;;;;;10.04;100.00;99980.34;1756691;81;21042;-72
2021/11/03 07:23:01;;;;;;;24.23;13.15;;;;;;;10.08;100.00;99984.38;1752256;82;21053;-73
2021/11/03 07:25:28;;;;;;;27.00;15.00;;;;;;;10.14;100.00;99984.20;1756169;79;21030;-70
2021/11/03 07:27:56;;;;;;;26.77;14.80;;;;;;;10.18;100.00;99990.94;1753722;81;20958;-72
2021/11/03 07:30:25;;;;;;;25.40;13.80;;;;;;;10.21;100.00;99986.56;1721906;81;20994;-68
2021/11/03 07:32:53;;;;;;;24.43;14.10;;;;;;;10.23;100.00;99988.09;1744052;81;21193;-70
2021/11/03 07:35:20;;;;;;;29.60;16.97;;;;;;;10.22;100.00;99980.98;1762167;80;21565;-70
2021/11/03 07:37:47;;;;;;;23.77;13.53;;;;;;;10.22;100.00;99986.39;1742043;80;21003;-69
2021/11/03 07:40:17;;;;;;;29.87;14.47;;;;;;;10.20;100.00;99988.42;1735066;81;20998;-70
2021/11/03 07:42:44;;;;;;;24.23;13.58;;;;;;;10.23;100.00;99998.03;1734229;81;21013;-68
2021/11/03 07:45:11;;;;;;;21.47;12.27;;;;;;;10.23;100.00;99997.55;1728777;81;21073;-71
2021/11/03 07:47:38;;;;;;;22.27;13.03;;;;;;;10.21;100.00;99999.55;1738394;81;21087;-69
2021/11/03 07:50:09;;;;;;;23.60;12.78;;;;;;;10.22;100.00;99993.15;1750002;80;20994;-69
2021/11/03 07:52:36;;;;;;;25.35;13.90;;;;;;;10.26;100.00;99994.48;1732049;80;21029;-70
2021/11/03 07:55:03;;;;;;;24.43;14.70;;;;;;;10.30;100.00;99999.56;1761302;80;21030;-70
2021/11/03 08:00:01;;;;;;;28.00;16.23;;;;;;;10.36;100.00;100008.39;1639049;86;21069;-75
2021/11/03 08:02:30;;;;;;;21.35;13.83;;;;;;;10.36;100.00;100007.03;1671613;84;21174;-73
2021/11/03 08:04:59;;;;;;;22.82;12.28;;;;;;;10.37;100.00;100008.19;1645382;85;21204;-72
2021/11/03 08:07:26;;;;;;;26.47;17.80;;;;;;;10.38;100.00;100011.75;1668757;84;21082;-74
2021/11/03 08:09:53;;;;;;;20.30;13.45;;;;;;;10.40;100.00;100014.61;1660534;85;21543;-73
2021/11/03 08:12:21;;;;;;;20.80;13.17;;;;;;;10.41;100.00;100017.66;1662124;85;21082;-73
2021/11/03 08:14:47;;;;;;;25.40;15.32;;;;;;;10.40;100.00;100014.61;1650627;86;21025;-72
2021/11/03 08:17:21;;;;;;;25.83;15.57;;;;;;;10.39;100.00;100009.38;1675230;84;21571;-70
2021/11/03 08:19:55;;;;;;;26.05;15.00;;;;;;;10.40;100.00;100015.97;1657082;85;21675;-73
2021/11/03 08:22:24;;;;;;;25.97;15.17;;;;;;;10.44;100.00;100017.81;1636556;86;21083;-74
2021/11/03 08:24:58;;;;;;;24.82;13.22;;;;;;;10.46;100.00;100023.89;1653515;85;21081;-71
2021/11/03 08:27:25;;;;;;;26.57;15.32;;;;;;;10.47;100.00;100020.19;1649417;86;21091;-72
2021/11/03 08:29:52;;;;;;;26.43;15.03;;;;;;;10.44;100.00;100018.66;1646450;86;21048;-72
2021/11/03 08:32:26;;;;;;;25.10;14.25;;;;;;;10.45;100.00;100027.63;1657510;84;21973;-72
2021/11/03 08:34:54;;;;;;;23.47;14.07;;;;;;;10.48;100.00;100025.91;1645426;86;21053;-72
2021/11/03 08:37:25;;;;;;;27.43;14.33;;;;;;;10.51;100.00;100027.45;1648613;85;21548;-72
2021/11/03 08:39:53;;;;;;;29.57;16.27;;;;;;;10.55;100.00;100027.43;1608843;87;21045;-74
2021/11/03 08:42:21;;;;;;;24.13;14.57;;;;;;;10.58;100.00;100028.45;1608190;87;21053;-73
2021/11/03 08:44:50;;;;;;;22.07;13.10;;;;;;;10.62;100.00;100027.08;1610857;87;21034;-75
2021/11/03 08:47:17;;;;;;;26.65;14.80;;;;;;;10.65;100.00;100026.75;1603823;88;21087;-73
2021/11/03 08:49:44;;;;;;;22.75;14.18;;;;;;;10.67;100.00;100032.82;1606082;88;21123;-72
2021/11/03 08:52:11;;;;;;;25.80;14.90;;;;;;;10.67;100.00;100025.22;1603094;88;21175;-74
2021/11/03 08:54:41;;;;;;;21.65;14.33;;;;;;;10.70;100.00;100031.13;1605119;88;21099;-73
2021/11/03 08:57:08;;;;;;;20.92;13.13;;;;;;;10.73;100.00;100030.80;1639227;85;21155;-74
2021/11/03 08:59:35;;;;;;;21.35;13.25;;;;;;;10.76;100.00;100026.89;1682406;84;21042;-72
2021/11/03 09:02:03;;;;;;;32.05;22.32;;;;;;;10.78;100.00;100028.42;1697591;83;20975;-71
2021/11/03 09:04:35;;;;;;;24.32;15.15;;;;;;;10.78;100.00;100029.77;1689936;84;21476;-72
2021/11/03 09:07:03;;;;;;;27.62;15.75;;;;;;;10.78;100.00;100020.30;1696450;83;21027;-75
2021/11/03 09:09:30;;;;;;;22.15;14.73;;;;;;;10.80;100.00;100026.87;1678831;82;21047;-72
2021/11/03 09:11:57;;;;;;;24.72;16.40;;;;;;;10.81;100.00;100025.87;1681639;84;21011;-73
2021/11/03 09:14:24;;;;;;;21.62;14.83;;;;;;;10.84;100.00;100021.47;1699138;83;21022;-72
2021/11/03 09:16:51;;;;;;;21.87;13.50;;;;;;;10.85;100.00;100023.14;1672129;84;21009;-72
2021/11/03 09:19:18;;;;;;;21.57;13.50;;;;;;;10.86;100.00;100023.48;1674789;84;20994;-73
2021/11/03 09:21:45;;;;;;;22.58;13.90;;;;;;;10.87;100.00;100017.08;1684530;83;21081;-72
2021/11/03 09:24:12;;;;;;;22.17;13.03;;;;;;;10.91;100.00;100022.98;1711503;81;20962;-73
2021/11/03 09:26:40;;;;;;;23.57;14.53;;;;;;;10.94;100.00;100018.55;1708038;83;21077;-71
2021/11/03 09:29:07;;;;;;;21.27;14.73;;;;;;;10.98;100.00;100014.50;1695676;83;21058;-73
2021/11/03 09:31:34;;;;;;;24.00;15.53;;;;;;;10.99;100.00;100017.52;1703142;83;21045;-75
2021/11/03 09:34:01;;;;;;;21.57;14.03;;;;;;;10.99;100.00;100017.00;1695507;83;21426;-73
2021/11/03 09:36:29;;;;;;;24.52;14.55;;;;;;;11.01;100.00;100013.64;1709868;80;21014;-72
2021/11/03 09:38:55;;;;;;;24.52;14.85;;;;;;;11.03;100.00;100009.41;1741556;81;21026;-72
2021/11/03 09:41:33;;;;;;;29.37;18.02;;;;;;;11.06;100.00;100016.33;1765248;80;21023;-72
2021/11/03 09:44:23;;;;;;;25.88;15.00;;;;;;;11.09;100.00;100017.34;1751158;81;21029;-73
2021/11/03 09:46:55;;;;;;;23.98;14.65;;;;;;;11.10;100.00;100018.52;1727552;81;21061;-74
2021/11/03 09:49:40;;;;;;;27.55;15.85;;;;;;;11.12;100.00;100014.25;1723788;82;21073;-73
2021/11/03 09:52:28;;;;;;;27.60;16.50;;;;;;;11.14;100.00;100018.49;1712686;83;21101;-72
2021/11/03 09:54:59;;;;;;;27.42;15.48;;;;;;;11.16;100.00;100009.69;1690632;84;21026;-72
2021/11/03 09:57:31;;;;;;;30.12;18.45;;;;;;;11.22;100.00;100013.55;1724431;81;21574;-72
2021/11/03 10:00:29;;;;;;;30.87;19.53;;;;;;;11.24;100.00;100016.08;1724530;81;21022;-72
2021/11/03 10:03:36;;;;;;;25.08;14.90;;;;;;;11.29;100.00;100015.04;1718543;82;21025;-71
2021/11/03 10:06:08;;;;;;;22.93;14.40;;;;;;;11.33;100.00;100015.02;1722337;82;21075;-73
2021/11/03 10:08:40;;;;;;;25.52;14.93;;;;;;;11.34;100.00;100017.55;1711172;82;21102;-71
2021/11/03 10:11:29;;;;;;;27.75;17.10;;;;;;;11.36;100.00;100019.56;1688549;84;21143;-73
2021/11/03 10:13:58;;;;;;;26.77;16.40;;;;;;;11.38;100.00;100013.48;1704710;82;20986;-70
2021/11/03 10:16:33;;;;;;;21.80;13.88;;;;;;;11.38;100.00;100010.78;1701669;83;21520;-73
2021/11/03 10:19:10;;;;;;;29.95;19.95;;;;;;;11.40;100.00;100010.09;1714746;83;21080;-73
2021/11/03 10:21:51;;;;;;;22.70;14.07;;;;;;;11.42;100.00;100013.98;1720621;82;21134;-73
2021/11/03 10:24:27;;;;;;;22.82;14.35;;;;;;;11.41;100.00;100009.57;1705317;83;21112;-71
2021/11/03 10:27:11;;;;;;;21.45;14.35;;;;;;;11.40;100.00;100014.64;1716465;83;21090;-69
2021/11/03 10:29:48;;;;;;;22.80;14.45;;;;;;;11.40;100.00;100011.93;1718138;83;21042;-71
2021/11/03 10:32:28;;;;;;;25.48;15.25;;;;;;;11.38;100.00;100001.80;1708091;84;21073;-71
2021/11/03 10:35:15;;;;;;;24.67;14.70;;;;;;;11.39;100.00;100003.49;1709392;84;21081;-72
2021/11/03 10:37:46;;;;;;;24.92;14.53;;;;;;;11.42;100.00;100009.05;1671627;84;21015;-72
2021/11/03 10:40:23;;;;;;;28.73;16.32;;;;;;;11.45;100.00;100006.83;1671508;86;21085;-73
2021/11/03 10:42:56;;;;;;;30.12;16.65;;;;;;;11.47;100.00;100005.30;1672993;84;20971;-75
2021/11/03 10:45:34;;;;;;;35.23;17.32;;;;;;;11.49;100.00;100005.47;1664060;84;21527;-71
2021/11/03 10:48:24;;;;;;;30.27;15.93;;;;;;;11.51;100.00;99995.79;1702100;83;21692;-69
2021/11/03 10:51:14;;;;;;;27.37;15.65;;;;;;;11.55;100.00;100003.39;1713172;83;21030;-71
2021/11/03 10:53:46;;;;;;;23.00;12.37;;;;;;;11.58;100.00;100013.05;1702458;83;21044;-77
2021/11/03 10:56:27;;;;;;;26.65;15.00;;;;;;;11.61;100.00;100006.41;1697554;83;21042;-72
2021/11/03 10:58:59;;;;;;;23.32;13.03;;;;;;;11.60;100.00;100004.22;1676529;83;21493;-74
2021/11/03 11:01:31;;;;;;;21.48;12.88;;;;;;;11.61;100.00;100003.19;1699456;83;21022;-69
2021/11/03 11:04:28;;;;;;;21.60;12.95;;;;;;;11.62;100.00;100006.23;1684335;83;21062;-69
2021/11/03 11:07:06;;;;;;;33.90;12.95;;;;;;;11.64;100.00;100006.90;1683402;84;21019;-73
2021/11/03 11:09:47;;;;;;;29.35;12.58;;;;;;;11.64;100.00;100000.64;1693245;83;21548;-71
2021/11/03 11:12:30;;;;;;;18.70;9.53;;;;;;;11.65;100.00;100011.30;1696412;82;21005;-73
2021/11/03 11:15:15;;;;;;;19.40;9.43;;;;;;;11.66;100.00;100004.02;1678897;83;21048;-71
2021/11/03 11:18:06;;;;;;;16.23;8.53;;;;;;;11.65;100.00;100005.02;1598087;88;21611;-74
2021/11/03 11:20:41;;;;;;;14.98;8.38;;;;;;;11.63;100.00;100004.36;1567717;91;21093;-73
2021/11/03 11:23:32;;;;;;;16.62;8.85;;;;;;;11.64;100.00;100006.90;1605696;88;21029;-73
2021/11/03 11:26:28;;;;;;;12.95;7.17;;;;;;;11.65;100.00;100007.73;1570340;89;21658;-74
2021/11/03 11:29:13;;;;;;;13.55;6.70;;;;;;;11.65;100.00;100009.95;1594511;88;21106;-73
2021/11/03 11:31:56;;;;;;;10.78;6.90;;;;;;;11.65;100.00;100011.30;1598990;89;21118;-74